sensor_id;sensor_type;location;lat;lon;timestamp;P1;durP1;ratioP1;P2;durP2;ratioP2
14474;SDS011;7323;50.848;4.334;2023-02-12T00:00:37;18.53;;;16.13;;
14474;SDS011;7323;50.848;4.334;2023-02-12T00:03:03;20.17;;;17.77;;
14474;SDS011;7323;50.848;4.334;2023-02-12T00:05:31;20.13;;;17.63;;
14474;SDS011;7323;50.848;4.334;2023-02-12T00:07:57;18.67;;;16.27;;
14474;SDS011;7323;50.848;4.334;2023-02-12T00:10:23;19.27;;;17.27;;
14474;SDS011;7323;50.848;4.334;2023-02-12T00:12:48;16.43;;;14.73;;
14474;SDS011;7323;50.848;4.334;2023-02-12T00:15:14;18.77;;;16.07;;
14474;SDS011;7323;50.848;4.334;2023-02-12T00:17:40;14.57;;;13.07;;
14474;SDS011;7323;50.848;4.334;2023-02-12T00:20:06;13.00;;;11.63;;
14474;SDS011;7323;50.848;4.334;2023-02-12T00:22:32;12.20;;;10.97;;
14474;SDS011;7323;50.848;4.334;2023-02-12T00:24:58;13.07;;;10.70;;
14474;SDS011;7323;50.848;4.334;2023-02-12T00:27:24;13.20;;;11.30;;
14474;SDS011;7323;50.848;4.334;2023-02-12T00:29:49;12.67;;;10.70;;
14474;SDS011;7323;50.848;4.334;2023-02-12T00:32:15;10.17;;;9.07;;
14474;SDS011;7323;50.848;4.334;2023-02-12T00:34:45;10.57;;;9.37;;
14474;SDS011;7323;50.848;4.334;2023-02-12T00:37:11;10.93;;;9.83;;
14474;SDS011;7323;50.848;4.334;2023-02-12T00:39:37;10.20;;;9.30;;
14474;SDS011;7323;50.848;4.334;2023-02-12T00:42:03;11.57;;;9.00;;
14474;SDS011;7323;50.848;4.334;2023-02-12T00:44:29;10.93;;;9.03;;
14474;SDS011;7323;50.848;4.334;2023-02-12T00:46:55;12.33;;;9.97;;
14474;SDS011;7323;50.848;4.334;2023-02-12T00:49:21;10.37;;;9.27;;
14474;SDS011;7323;50.848;4.334;2023-02-12T00:51:48;10.53;;;9.43;;
14474;SDS011;7323;50.848;4.334;2023-02-12T00:54:14;11.87;;;10.50;;
14474;SDS011;7323;50.848;4.334;2023-02-12T00:56:39;10.40;;;9.30;;
14474;SDS011;7323;50.848;4.334;2023-02-12T00:59:05;9.93;;;8.97;;
14474;SDS011;7323;50.848;4.334;2023-02-12T01:01:31;9.97;;;8.73;;
14474;SDS011;7323;50.848;4.334;2023-02-12T01:03:56;10.33;;;8.33;;
14474;SDS011;7323;50.848;4.334;2023-02-12T01:06:22;9.87;;;8.87;;
14474;SDS011;7323;50.848;4.334;2023-02-12T01:08:51;10.03;;;8.90;;
14474;SDS011;7323;50.848;4.334;2023-02-12T01:11:17;10.70;;;9.60;;
14474;SDS011;7323;50.848;4.334;2023-02-12T01:13:43;9.63;;;8.43;;
14474;SDS011;7323;50.848;4.334;2023-02-12T01:16:14;10.50;;;9.17;;
14474;SDS011;7323;50.848;4.334;2023-02-12T01:18:43;14.10;;;12.60;;
14474;SDS011;7323;50.848;4.334;2023-02-12T01:24:04;10.20;;;9.00;;
14474;SDS011;7323;50.848;4.334;2023-02-12T01:26:30;12.73;;;11.33;;
14474;SDS011;7323;50.848;4.334;2023-02-12T01:28:58;13.43;;;12.23;;
14474;SDS011;7323;50.848;4.334;2023-02-12T01:31:26;17.90;;;15.17;;
14474;SDS011;7323;50.848;4.334;2023-02-12T01:33:57;11.67;;;10.67;;
14474;SDS011;7323;50.848;4.334;2023-02-12T01:36:25;11.87;;;10.77;;
14474;SDS011;7323;50.848;4.334;2023-02-12T01:38:52;12.37;;;11.17;;
14474;SDS011;7323;50.848;4.334;2023-02-12T01:41:19;11.60;;;10.40;;
14474;SDS011;7323;50.848;4.334;2023-02-12T01:44:04;13.20;;;11.97;;
14474;SDS011;7323;50.848;4.334;2023-02-12T01:46:29;14.57;;;12.77;;
14474;SDS011;7323;50.848;4.334;2023-02-12T01:48:55;13.37;;;11.97;;
14474;SDS011;7323;50.848;4.334;2023-02-12T01:51:21;13.90;;;10.90;;
14474;SDS011;7323;50.848;4.334;2023-02-12T01:53:50;12.07;;;10.97;;
14474;SDS011;7323;50.848;4.334;2023-02-12T01:56:18;13.07;;;11.60;;
14474;SDS011;7323;50.848;4.334;2023-02-12T01:58:46;14.00;;;12.53;;
14474;SDS011;7323;50.848;4.334;2023-02-12T02:01:19;15.53;;;13.93;;
14474;SDS011;7323;50.848;4.334;2023-02-12T02:03:51;14.17;;;12.53;;
14474;SDS011;7323;50.848;4.334;2023-02-12T02:09:32;16.27;;;14.73;;
14474;SDS011;7323;50.848;4.334;2023-02-12T02:12:00;13.90;;;12.57;;
14474;SDS011;7323;50.848;4.334;2023-02-12T02:14:45;13.63;;;12.30;;
14474;SDS011;7323;50.848;4.334;2023-02-12T02:25:39;17.87;;;16.27;;
14474;SDS011;7323;50.848;4.334;2023-02-12T02:31:05;16.47;;;15.00;;
14474;SDS011;7323;50.848;4.334;2023-02-12T02:36:14;13.80;;;12.50;;
14474;SDS011;7323;50.848;4.334;2023-02-12T02:38:49;15.20;;;13.80;;
14474;SDS011;7323;50.848;4.334;2023-02-12T02:41:25;16.00;;;14.30;;
14474;SDS011;7323;50.848;4.334;2023-02-12T02:43:56;17.87;;;16.27;;
14474;SDS011;7323;50.848;4.334;2023-02-12T02:46:37;16.53;;;14.70;;
14474;SDS011;7323;50.848;4.334;2023-02-12T02:49:10;18.23;;;16.33;;
14474;SDS011;7323;50.848;4.334;2023-02-12T02:51:42;18.97;;;17.03;;
14474;SDS011;7323;50.848;4.334;2023-02-12T02:54:15;20.93;;;18.90;;
14474;SDS011;7323;50.848;4.334;2023-02-12T02:56:46;22.67;;;20.27;;
14474;SDS011;7323;50.848;4.334;2023-02-12T02:59:36;21.17;;;18.97;;
14474;SDS011;7323;50.848;4.334;2023-02-12T03:02:11;17.57;;;15.90;;
14474;SDS011;7323;50.848;4.334;2023-02-12T03:04:42;22.57;;;20.17;;
14474;SDS011;7323;50.848;4.334;2023-02-12T03:07:14;22.20;;;20.00;;
14474;SDS011;7323;50.848;4.334;2023-02-12T03:09:58;20.27;;;18.27;;
14474;SDS011;7323;50.848;4.334;2023-02-12T03:15:22;17.70;;;16.10;;
14474;SDS011;7323;50.848;4.334;2023-02-12T03:18:01;20.17;;;18.17;;
14474;SDS011;7323;50.848;4.334;2023-02-12T03:20:34;21.30;;;19.23;;
14474;SDS011;7323;50.848;4.334;2023-02-12T03:23:09;20.37;;;18.37;;
14474;SDS011;7323;50.848;4.334;2023-02-12T03:25:40;22.93;;;20.73;;
14474;SDS011;7323;50.848;4.334;2023-02-12T03:28:18;23.97;;;21.37;;
14474;SDS011;7323;50.848;4.334;2023-02-12T03:30:52;25.60;;;23.00;;
14474;SDS011;7323;50.848;4.334;2023-02-12T03:36:47;18.93;;;17.13;;
14474;SDS011;7323;50.848;4.334;2023-02-12T03:48:40;22.33;;;19.93;;
14474;SDS011;7323;50.848;4.334;2023-02-12T03:51:21;23.60;;;20.40;;
14474;SDS011;7323;50.848;4.334;2023-02-12T03:53:53;16.60;;;15.00;;
14474;SDS011;7323;50.848;4.334;2023-02-12T03:56:24;16.80;;;15.20;;
14474;SDS011;7323;50.848;4.334;2023-02-12T03:59:14;18.77;;;16.77;;
14474;SDS011;7323;50.848;4.334;2023-02-12T04:01:40;21.07;;;18.87;;
14474;SDS011;7323;50.848;4.334;2023-02-12T04:04:06;21.00;;;18.70;;
14474;SDS011;7323;50.848;4.334;2023-02-12T04:06:33;18.37;;;16.47;;
14474;SDS011;7323;50.848;4.334;2023-02-12T04:09:06;19.07;;;17.17;;
14474;SDS011;7323;50.848;4.334;2023-02-12T04:17:12;16.23;;;14.73;;
14474;SDS011;7323;50.848;4.334;2023-02-12T04:25:32;19.63;;;17.73;;
14474;SDS011;7323;50.848;4.334;2023-02-12T04:33:59;22.93;;;20.63;;
14474;SDS011;7323;50.848;4.334;2023-02-12T04:36:48;20.03;;;17.83;;
14474;SDS011;7323;50.848;4.334;2023-02-12T04:39:20;17.23;;;15.53;;
14474;SDS011;7323;50.848;4.334;2023-02-12T04:41:50;19.60;;;17.67;;
14474;SDS011;7323;50.848;4.334;2023-02-12T04:44:18;16.87;;;15.23;;
14474;SDS011;7323;50.848;4.334;2023-02-12T04:46:53;17.70;;;15.93;;
14474;SDS011;7323;50.848;4.334;2023-02-12T04:49:19;21.57;;;19.47;;
14474;SDS011;7323;50.848;4.334;2023-02-12T04:51:48;20.57;;;18.57;;
14474;SDS011;7323;50.848;4.334;2023-02-12T04:54:14;17.40;;;15.40;;
14474;SDS011;7323;50.848;4.334;2023-02-12T04:56:41;20.67;;;18.47;;
14474;SDS011;7323;50.848;4.334;2023-02-12T04:59:07;22.00;;;19.80;;
14474;SDS011;7323;50.848;4.334;2023-02-12T05:01:34;22.07;;;19.60;;
14474;SDS011;7323;50.848;4.334;2023-02-12T05:04:02;18.57;;;16.63;;
14474;SDS011;7323;50.848;4.334;2023-02-12T05:06:29;22.90;;;20.50;;
14474;SDS011;7323;50.848;4.334;2023-02-12T05:09:09;19.47;;;17.63;;
14474;SDS011;7323;50.848;4.334;2023-02-12T05:11:38;24.40;;;22.00;;
14474;SDS011;7323;50.848;4.334;2023-02-12T05:14:04;21.00;;;18.97;;
14474;SDS011;7323;50.848;4.334;2023-02-12T05:16:29;21.73;;;19.63;;
14474;SDS011;7323;50.848;4.334;2023-02-12T05:18:55;18.83;;;16.93;;
14474;SDS011;7323;50.848;4.334;2023-02-12T05:21:21;18.80;;;17.00;;
14474;SDS011;7323;50.848;4.334;2023-02-12T05:23:47;19.23;;;17.33;;
14474;SDS011;7323;50.848;4.334;2023-02-12T05:26:13;18.07;;;16.17;;
14474;SDS011;7323;50.848;4.334;2023-02-12T05:28:41;17.73;;;16.03;;
14474;SDS011;7323;50.848;4.334;2023-02-12T05:31:08;22.50;;;20.20;;
14474;SDS011;7323;50.848;4.334;2023-02-12T05:33:35;24.33;;;21.77;;
14474;SDS011;7323;50.848;4.334;2023-02-12T05:38:30;29.10;;;26.20;;
14474;SDS011;7323;50.848;4.334;2023-02-12T05:41:13;29.30;;;26.30;;
14474;SDS011;7323;50.848;4.334;2023-02-12T05:43:43;31.23;;;27.30;;
14474;SDS011;7323;50.848;4.334;2023-02-12T05:46:09;26.60;;;23.90;;
14474;SDS011;7323;50.848;4.334;2023-02-12T05:48:36;23.50;;;21.07;;
14474;SDS011;7323;50.848;4.334;2023-02-12T05:51:03;27.70;;;25.00;;
14474;SDS011;7323;50.848;4.334;2023-02-12T05:53:36;22.30;;;20.00;;
14474;SDS011;7323;50.848;4.334;2023-02-12T05:56:08;29.73;;;26.57;;
14474;SDS011;7323;50.848;4.334;2023-02-12T05:58:36;28.47;;;25.43;;
14474;SDS011;7323;50.848;4.334;2023-02-12T06:01:07;22.47;;;20.13;;
14474;SDS011;7323;50.848;4.334;2023-02-12T06:03:34;23.87;;;21.37;;
14474;SDS011;7323;50.848;4.334;2023-02-12T06:06:00;23.20;;;20.70;;
14474;SDS011;7323;50.848;4.334;2023-02-12T06:08:26;23.47;;;21.00;;
14474;SDS011;7323;50.848;4.334;2023-02-12T06:10:51;23.73;;;21.23;;
14474;SDS011;7323;50.848;4.334;2023-02-12T06:13:17;22.87;;;20.43;;
14474;SDS011;7323;50.848;4.334;2023-02-12T06:15:43;23.07;;;20.77;;
14474;SDS011;7323;50.848;4.334;2023-02-12T06:18:08;23.57;;;21.13;;
14474;SDS011;7323;50.848;4.334;2023-02-12T06:20:37;25.50;;;22.83;;
14474;SDS011;7323;50.848;4.334;2023-02-12T06:23:03;23.27;;;20.97;;
14474;SDS011;7323;50.848;4.334;2023-02-12T06:25:30;22.90;;;20.60;;
14474;SDS011;7323;50.848;4.334;2023-02-12T06:27:56;23.77;;;21.13;;
14474;SDS011;7323;50.848;4.334;2023-02-12T06:30:21;24.93;;;22.17;;
14474;SDS011;7323;50.848;4.334;2023-02-12T06:32:50;27.03;;;24.03;;
14474;SDS011;7323;50.848;4.334;2023-02-12T06:35:16;24.80;;;21.73;;
14474;SDS011;7323;50.848;4.334;2023-02-12T06:37:43;25.77;;;23.27;;
14474;SDS011;7323;50.848;4.334;2023-02-12T06:40:10;22.90;;;20.57;;
14474;SDS011;7323;50.848;4.334;2023-02-12T06:42:36;24.00;;;21.50;;
14474;SDS011;7323;50.848;4.334;2023-02-12T06:45:02;23.40;;;20.63;;
14474;SDS011;7323;50.848;4.334;2023-02-12T06:47:28;25.00;;;22.43;;
14474;SDS011;7323;50.848;4.334;2023-02-12T06:49:53;24.23;;;21.63;;
14474;SDS011;7323;50.848;4.334;2023-02-12T06:52:19;21.67;;;18.90;;
14474;SDS011;7323;50.848;4.334;2023-02-12T06:54:49;27.53;;;22.60;;
14474;SDS011;7323;50.848;4.334;2023-02-12T06:57:15;24.70;;;20.47;;
14474;SDS011;7323;50.848;4.334;2023-02-12T06:59:40;24.10;;;21.50;;
14474;SDS011;7323;50.848;4.334;2023-02-12T07:02:07;24.50;;;21.90;;
14474;SDS011;7323;50.848;4.334;2023-02-12T07:04:36;24.47;;;20.80;;
14474;SDS011;7323;50.848;4.334;2023-02-12T07:07:02;24.07;;;21.00;;
14474;SDS011;7323;50.848;4.334;2023-02-12T07:09:29;24.87;;;21.73;;
14474;SDS011;7323;50.848;4.334;2023-02-12T07:11:57;24.60;;;22.03;;
14474;SDS011;7323;50.848;4.334;2023-02-12T07:14:23;25.73;;;22.40;;
14474;SDS011;7323;50.848;4.334;2023-02-12T07:16:50;23.10;;;20.60;;
14474;SDS011;7323;50.848;4.334;2023-02-12T07:19:17;25.50;;;22.77;;
14474;SDS011;7323;50.848;4.334;2023-02-12T07:21:43;25.67;;;22.50;;
14474;SDS011;7323;50.848;4.334;2023-02-12T07:24:09;26.37;;;23.53;;
14474;SDS011;7323;50.848;4.334;2023-02-12T07:26:38;25.50;;;22.80;;
14474;SDS011;7323;50.848;4.334;2023-02-12T07:29:05;27.00;;;24.10;;
14474;SDS011;7323;50.848;4.334;2023-02-12T07:31:37;27.07;;;24.13;;
14474;SDS011;7323;50.848;4.334;2023-02-12T07:34:03;26.47;;;23.67;;
14474;SDS011;7323;50.848;4.334;2023-02-12T07:36:29;26.00;;;23.20;;
14474;SDS011;7323;50.848;4.334;2023-02-12T07:38:57;29.43;;;23.10;;
14474;SDS011;7323;50.848;4.334;2023-02-12T07:44:00;27.87;;;24.67;;
14474;SDS011;7323;50.848;4.334;2023-02-12T07:46:29;28.23;;;25.13;;
14474;SDS011;7323;50.848;4.334;2023-02-12T07:48:57;26.50;;;23.30;;
14474;SDS011;7323;50.848;4.334;2023-02-12T07:51:25;27.27;;;24.33;;
14474;SDS011;7323;50.848;4.334;2023-02-12T07:53:51;29.37;;;24.80;;
14474;SDS011;7323;50.848;4.334;2023-02-12T07:56:18;26.80;;;23.60;;
14474;SDS011;7323;50.848;4.334;2023-02-12T07:58:46;29.57;;;25.23;;
14474;SDS011;7323;50.848;4.334;2023-02-12T08:03:44;29.77;;;25.60;;
14474;SDS011;7323;50.848;4.334;2023-02-12T08:06:13;32.30;;;25.87;;
14474;SDS011;7323;50.848;4.334;2023-02-12T08:08:41;27.93;;;25.03;;
14474;SDS011;7323;50.848;4.334;2023-02-12T08:11:08;29.07;;;25.73;;
14474;SDS011;7323;50.848;4.334;2023-02-12T08:13:35;29.40;;;25.30;;
14474;SDS011;7323;50.848;4.334;2023-02-12T08:16:02;28.27;;;24.03;;
14474;SDS011;7323;50.848;4.334;2023-02-12T08:18:30;28.43;;;25.27;;
14474;SDS011;7323;50.848;4.334;2023-02-12T08:21:04;32.57;;;27.40;;
14474;SDS011;7323;50.848;4.334;2023-02-12T08:23:32;31.13;;;26.40;;
14474;SDS011;7323;50.848;4.334;2023-02-12T08:26:08;31.37;;;27.40;;
14474;SDS011;7323;50.848;4.334;2023-02-12T08:28:42;28.70;;;25.67;;
14474;SDS011;7323;50.848;4.334;2023-02-12T08:31:12;28.77;;;24.77;;
14474;SDS011;7323;50.848;4.334;2023-02-12T08:33:47;27.70;;;24.47;;
14474;SDS011;7323;50.848;4.334;2023-02-12T08:36:14;26.77;;;23.97;;
14474;SDS011;7323;50.848;4.334;2023-02-12T08:38:43;26.53;;;23.70;;
14474;SDS011;7323;50.848;4.334;2023-02-12T08:41:30;27.13;;;24.20;;
14474;SDS011;7323;50.848;4.334;2023-02-12T08:43:56;27.40;;;24.43;;
14474;SDS011;7323;50.848;4.334;2023-02-12T08:46:24;30.50;;;25.00;;
14474;SDS011;7323;50.848;4.334;2023-02-12T08:48:53;28.33;;;23.60;;
14474;SDS011;7323;50.848;4.334;2023-02-12T08:51:21;21.37;;;19.03;;
14474;SDS011;7323;50.848;4.334;2023-02-12T08:53:51;24.13;;;21.53;;
14474;SDS011;7323;50.848;4.334;2023-02-12T08:56:19;24.77;;;21.13;;
14474;SDS011;7323;50.848;4.334;2023-02-12T08:58:45;24.27;;;19.70;;
14474;SDS011;7323;50.848;4.334;2023-02-12T09:01:14;26.43;;;22.37;;
14474;SDS011;7323;50.848;4.334;2023-02-12T09:03:43;28.17;;;22.83;;
14474;SDS011;7323;50.848;4.334;2023-02-12T09:06:09;31.37;;;23.87;;
14474;SDS011;7323;50.848;4.334;2023-02-12T09:08:37;28.03;;;22.97;;
14474;SDS011;7323;50.848;4.334;2023-02-12T09:11:07;32.27;;;24.57;;
14474;SDS011;7323;50.848;4.334;2023-02-12T09:13:37;27.73;;;22.80;;
14474;SDS011;7323;50.848;4.334;2023-02-12T09:16:04;25.47;;;22.77;;
14474;SDS011;7323;50.848;4.334;2023-02-12T09:18:34;24.97;;;22.20;;
14474;SDS011;7323;50.848;4.334;2023-02-12T09:21:05;27.30;;;21.33;;
14474;SDS011;7323;50.848;4.334;2023-02-12T09:23:35;26.40;;;20.83;;
14474;SDS011;7323;50.848;4.334;2023-02-12T09:26:09;24.37;;;21.47;;
14474;SDS011;7323;50.848;4.334;2023-02-12T09:28:42;25.93;;;21.87;;
14474;SDS011;7323;50.848;4.334;2023-02-12T09:31:22;25.90;;;20.90;;
14474;SDS011;7323;50.848;4.334;2023-02-12T09:36:49;25.23;;;21.07;;
14474;SDS011;7323;50.848;4.334;2023-02-12T09:39:15;26.77;;;20.20;;
14474;SDS011;7323;50.848;4.334;2023-02-12T09:41:45;27.60;;;21.17;;
14474;SDS011;7323;50.848;4.334;2023-02-12T09:47:14;22.80;;;19.77;;
14474;SDS011;7323;50.848;4.334;2023-02-12T09:52:16;24.63;;;21.43;;
14474;SDS011;7323;50.848;4.334;2023-02-12T09:54:45;24.03;;;20.07;;
14474;SDS011;7323;50.848;4.334;2023-02-12T09:57:15;26.63;;;20.53;;
14474;SDS011;7323;50.848;4.334;2023-02-12T09:59:59;24.50;;;20.83;;
14474;SDS011;7323;50.848;4.334;2023-02-12T10:02:28;24.03;;;19.83;;
14474;SDS011;7323;50.848;4.334;2023-02-12T10:04:54;24.60;;;20.67;;
14474;SDS011;7323;50.848;4.334;2023-02-12T10:07:24;24.00;;;21.30;;
14474;SDS011;7323;50.848;4.334;2023-02-12T10:10:58;24.30;;;19.87;;
14474;SDS011;7323;50.848;4.334;2023-02-12T10:13:26;23.53;;;20.60;;
14474;SDS011;7323;50.848;4.334;2023-02-12T10:27:12;28.13;;;22.97;;
14474;SDS011;7323;50.848;4.334;2023-02-12T10:29:40;25.93;;;23.07;;
14474;SDS011;7323;50.848;4.334;2023-02-12T10:32:20;26.43;;;22.77;;
14474;SDS011;7323;50.848;4.334;2023-02-12T10:34:50;26.73;;;23.20;;
14474;SDS011;7323;50.848;4.334;2023-02-12T10:40:03;26.67;;;23.73;;
14474;SDS011;7323;50.848;4.334;2023-02-12T10:42:42;30.83;;;25.07;;
14474;SDS011;7323;50.848;4.334;2023-02-12T10:45:15;32.33;;;26.77;;
14474;SDS011;7323;50.848;4.334;2023-02-12T10:47:43;30.93;;;25.60;;
14474;SDS011;7323;50.848;4.334;2023-02-12T10:53:25;26.37;;;20.83;;
14474;SDS011;7323;50.848;4.334;2023-02-12T10:58:55;28.17;;;24.03;;
14474;SDS011;7323;50.848;4.334;2023-02-12T11:03:58;28.53;;;21.67;;
14474;SDS011;7323;50.848;4.334;2023-02-12T11:06:29;31.20;;;22.83;;
14474;SDS011;7323;50.848;4.334;2023-02-12T11:08:56;26.87;;;22.53;;
14474;SDS011;7323;50.848;4.334;2023-02-12T11:18:57;25.97;;;21.27;;
14474;SDS011;7323;50.848;4.334;2023-02-12T11:21:29;23.03;;;20.53;;
14474;SDS011;7323;50.848;4.334;2023-02-12T11:23:56;26.10;;;21.03;;
14474;SDS011;7323;50.848;4.334;2023-02-12T11:26:44;26.27;;;21.70;;
14474;SDS011;7323;50.848;4.334;2023-02-12T11:29:20;27.13;;;21.67;;
14474;SDS011;7323;50.848;4.334;2023-02-12T11:32:03;27.07;;;20.90;;
14474;SDS011;7323;50.848;4.334;2023-02-12T11:37:01;24.20;;;20.97;;
14474;SDS011;7323;50.848;4.334;2023-02-12T11:39:30;27.53;;;21.47;;
14474;SDS011;7323;50.848;4.334;2023-02-12T11:47:22;26.63;;;21.73;;
14474;SDS011;7323;50.848;4.334;2023-02-12T11:49:55;28.93;;;21.97;;
14474;SDS011;7323;50.848;4.334;2023-02-12T11:52:25;29.40;;;21.73;;
14474;SDS011;7323;50.848;4.334;2023-02-12T11:54:56;25.90;;;20.03;;
14474;SDS011;7323;50.848;4.334;2023-02-12T11:57:42;25.00;;;20.27;;
14474;SDS011;7323;50.848;4.334;2023-02-12T12:03:29;24.20;;;19.77;;
14474;SDS011;7323;50.848;4.334;2023-02-12T12:17:39;24.53;;;19.97;;
14474;SDS011;7323;50.848;4.334;2023-02-12T12:20:32;23.27;;;18.60;;
14474;SDS011;7323;50.848;4.334;2023-02-12T12:23:10;24.80;;;20.23;;
14474;SDS011;7323;50.848;4.334;2023-02-12T12:25:45;24.80;;;19.60;;
14474;SDS011;7323;50.848;4.334;2023-02-12T12:31:18;24.90;;;18.57;;
14474;SDS011;7323;50.848;4.334;2023-02-12T12:36:59;27.23;;;18.03;;
14474;SDS011;7323;50.848;4.334;2023-02-12T12:51:08;20.63;;;17.17;;
14474;SDS011;7323;50.848;4.334;2023-02-12T13:05:44;22.70;;;16.83;;
14474;SDS011;7323;50.848;4.334;2023-02-12T13:08:48;22.87;;;17.47;;
14474;SDS011;7323;50.848;4.334;2023-02-12T13:11:50;21.17;;;16.17;;
14474;SDS011;7323;50.848;4.334;2023-02-12T13:14:46;19.47;;;14.90;;
14474;SDS011;7323;50.848;4.334;2023-02-12T13:17:27;18.67;;;15.33;;
14474;SDS011;7323;50.848;4.334;2023-02-12T13:22:54;21.23;;;15.67;;
14474;SDS011;7323;50.848;4.334;2023-02-12T13:25:30;18.40;;;15.80;;
14474;SDS011;7323;50.848;4.334;2023-02-12T13:28:02;18.33;;;14.13;;
14474;SDS011;7323;50.848;4.334;2023-02-12T13:30:44;17.30;;;14.87;;
14474;SDS011;7323;50.848;4.334;2023-02-12T13:33:15;19.53;;;15.37;;
14474;SDS011;7323;50.848;4.334;2023-02-12T13:35:46;19.07;;;14.80;;
14474;SDS011;7323;50.848;4.334;2023-02-12T13:38:21;17.90;;;14.50;;
14474;SDS011;7323;50.848;4.334;2023-02-12T13:41:00;21.10;;;15.67;;
14474;SDS011;7323;50.848;4.334;2023-02-12T13:49:01;19.77;;;15.70;;
14474;SDS011;7323;50.848;4.334;2023-02-12T14:00:57;23.67;;;17.30;;
14474;SDS011;7323;50.848;4.334;2023-02-12T14:03:29;19.93;;;16.47;;
14474;SDS011;7323;50.848;4.334;2023-02-12T14:09:19;20.03;;;16.70;;
14474;SDS011;7323;50.848;4.334;2023-02-12T14:11:48;21.27;;;16.20;;
14474;SDS011;7323;50.848;4.334;2023-02-12T14:14:25;21.87;;;17.90;;
14474;SDS011;7323;50.848;4.334;2023-02-12T14:16:54;29.30;;;18.10;;
14474;SDS011;7323;50.848;4.334;2023-02-12T14:19:37;23.80;;;17.40;;
14474;SDS011;7323;50.848;4.334;2023-02-12T14:24:53;23.43;;;17.60;;
14474;SDS011;7323;50.848;4.334;2023-02-12T14:37:50;24.07;;;18.57;;
14474;SDS011;7323;50.848;4.334;2023-02-12T14:43:02;25.03;;;19.43;;
14474;SDS011;7323;50.848;4.334;2023-02-12T14:45:47;29.13;;;22.23;;
14474;SDS011;7323;50.848;4.334;2023-02-12T14:48:37;25.70;;;19.93;;
14474;SDS011;7323;50.848;4.334;2023-02-12T14:51:22;27.77;;;21.13;;
14474;SDS011;7323;50.848;4.334;2023-02-12T14:53:59;27.80;;;20.60;;
14474;SDS011;7323;50.848;4.334;2023-02-12T14:56:28;25.47;;;19.90;;
14474;SDS011;7323;50.848;4.334;2023-02-12T14:59:05;24.73;;;19.57;;
14474;SDS011;7323;50.848;4.334;2023-02-12T15:01:41;24.40;;;19.30;;
14474;SDS011;7323;50.848;4.334;2023-02-12T15:04:11;21.53;;;18.13;;
14474;SDS011;7323;50.848;4.334;2023-02-12T15:09:29;24.90;;;20.23;;
14474;SDS011;7323;50.848;4.334;2023-02-12T15:12:11;22.33;;;17.10;;
14474;SDS011;7323;50.848;4.334;2023-02-12T15:14:50;22.97;;;17.60;;
14474;SDS011;7323;50.848;4.334;2023-02-12T15:17:31;23.90;;;18.60;;
14474;SDS011;7323;50.848;4.334;2023-02-12T15:22:35;25.57;;;19.40;;
14474;SDS011;7323;50.848;4.334;2023-02-12T15:25:16;27.30;;;18.97;;
14474;SDS011;7323;50.848;4.334;2023-02-12T15:27:59;22.57;;;17.77;;
14474;SDS011;7323;50.848;4.334;2023-02-12T15:30:32;26.10;;;17.90;;
14474;SDS011;7323;50.848;4.334;2023-02-12T15:33:01;25.13;;;19.50;;
14474;SDS011;7323;50.848;4.334;2023-02-12T15:35:30;27.87;;;20.07;;
14474;SDS011;7323;50.848;4.334;2023-02-12T15:37:58;26.57;;;20.07;;
14474;SDS011;7323;50.848;4.334;2023-02-12T15:40:26;26.60;;;19.33;;
14474;SDS011;7323;50.848;4.334;2023-02-12T15:45:20;23.90;;;18.33;;
14474;SDS011;7323;50.848;4.334;2023-02-12T15:47:59;23.90;;;18.67;;
14474;SDS011;7323;50.848;4.334;2023-02-12T15:51:03;26.20;;;19.70;;
14474;SDS011;7323;50.848;4.334;2023-02-12T15:53:43;29.47;;;21.20;;
14474;SDS011;7323;50.848;4.334;2023-02-12T15:56:12;29.10;;;21.97;;
14474;SDS011;7323;50.848;4.334;2023-02-12T15:58:48;28.37;;;22.13;;
14474;SDS011;7323;50.848;4.334;2023-02-12T16:01:20;26.90;;;21.50;;
14474;SDS011;7323;50.848;4.334;2023-02-12T16:03:59;26.10;;;20.23;;
14474;SDS011;7323;50.848;4.334;2023-02-12T16:06:29;26.73;;;19.23;;
14474;SDS011;7323;50.848;4.334;2023-02-12T16:09:00;26.13;;;18.87;;
14474;SDS011;7323;50.848;4.334;2023-02-12T16:11:30;27.07;;;19.00;;
14474;SDS011;7323;50.848;4.334;2023-02-12T16:14:01;27.83;;;20.50;;
14474;SDS011;7323;50.848;4.334;2023-02-12T16:16:54;25.50;;;19.80;;
14474;SDS011;7323;50.848;4.334;2023-02-12T16:19:29;26.30;;;19.90;;
14474;SDS011;7323;50.848;4.334;2023-02-12T16:47:54;26.33;;;20.43;;
14474;SDS011;7323;50.848;4.334;2023-02-12T16:50:21;25.00;;;20.77;;
14474;SDS011;7323;50.848;4.334;2023-02-12T16:53:03;26.30;;;20.30;;
14474;SDS011;7323;50.848;4.334;2023-02-12T16:55:51;26.07;;;20.97;;
14474;SDS011;7323;50.848;4.334;2023-02-12T16:58:21;26.87;;;20.37;;
14474;SDS011;7323;50.848;4.334;2023-02-12T17:00:53;28.27;;;21.50;;
14474;SDS011;7323;50.848;4.334;2023-02-12T17:03:25;28.60;;;21.47;;
14474;SDS011;7323;50.848;4.334;2023-02-12T17:06:02;30.37;;;22.27;;
14474;SDS011;7323;50.848;4.334;2023-02-12T17:08:29;29.17;;;22.90;;
14474;SDS011;7323;50.848;4.334;2023-02-12T17:10:55;29.93;;;22.13;;
14474;SDS011;7323;50.848;4.334;2023-02-12T17:13:20;30.20;;;22.80;;
14474;SDS011;7323;50.848;4.334;2023-02-12T17:15:54;31.83;;;23.23;;
14474;SDS011;7323;50.848;4.334;2023-02-12T17:18:21;31.40;;;24.33;;
14474;SDS011;7323;50.848;4.334;2023-02-12T17:20:54;33.57;;;25.47;;
14474;SDS011;7323;50.848;4.334;2023-02-12T17:23:23;31.20;;;23.53;;
14474;SDS011;7323;50.848;4.334;2023-02-12T17:25:49;29.87;;;24.27;;
14474;SDS011;7323;50.848;4.334;2023-02-12T17:28:14;29.50;;;23.50;;
14474;SDS011;7323;50.848;4.334;2023-02-12T17:30:40;35.33;;;24.67;;
14474;SDS011;7323;50.848;4.334;2023-02-12T17:33:06;31.07;;;22.53;;
14474;SDS011;7323;50.848;4.334;2023-02-12T17:35:32;30.50;;;22.33;;
14474;SDS011;7323;50.848;4.334;2023-02-12T17:37:58;29.93;;;23.43;;
14474;SDS011;7323;50.848;4.334;2023-02-12T17:40:24;30.17;;;24.57;;
14474;SDS011;7323;50.848;4.334;2023-02-12T17:42:49;33.17;;;25.60;;
14474;SDS011;7323;50.848;4.334;2023-02-12T17:45:15;34.87;;;23.73;;
14474;SDS011;7323;50.848;4.334;2023-02-12T17:47:41;33.33;;;23.70;;
14474;SDS011;7323;50.848;4.334;2023-02-12T17:50:08;31.07;;;24.57;;
14474;SDS011;7323;50.848;4.334;2023-02-12T17:52:35;32.60;;;26.00;;
14474;SDS011;7323;50.848;4.334;2023-02-12T17:55:01;34.90;;;25.63;;
14474;SDS011;7323;50.848;4.334;2023-02-12T17:57:30;32.47;;;24.87;;
14474;SDS011;7323;50.848;4.334;2023-02-12T17:59:58;32.70;;;24.83;;
14474;SDS011;7323;50.848;4.334;2023-02-12T18:02:24;34.43;;;26.40;;
14474;SDS011;7323;50.848;4.334;2023-02-12T18:04:50;35.17;;;26.00;;
14474;SDS011;7323;50.848;4.334;2023-02-12T18:07:15;34.20;;;24.87;;
14474;SDS011;7323;50.848;4.334;2023-02-12T18:09:41;34.23;;;25.87;;
14474;SDS011;7323;50.848;4.334;2023-02-12T18:12:07;34.93;;;25.03;;
14474;SDS011;7323;50.848;4.334;2023-02-12T18:14:41;35.33;;;26.33;;
14474;SDS011;7323;50.848;4.334;2023-02-12T18:17:11;35.53;;;26.70;;
14474;SDS011;7323;50.848;4.334;2023-02-12T18:19:36;33.40;;;25.83;;
14474;SDS011;7323;50.848;4.334;2023-02-12T18:22:03;37.07;;;27.63;;
14474;SDS011;7323;50.848;4.334;2023-02-12T18:24:29;35.40;;;26.73;;
14474;SDS011;7323;50.848;4.334;2023-02-12T18:26:57;36.57;;;25.97;;
14474;SDS011;7323;50.848;4.334;2023-02-12T18:29:22;34.93;;;27.90;;
14474;SDS011;7323;50.848;4.334;2023-02-12T18:31:48;38.73;;;26.37;;
14474;SDS011;7323;50.848;4.334;2023-02-12T18:34:14;36.83;;;27.23;;
14474;SDS011;7323;50.848;4.334;2023-02-12T18:36:39;42.93;;;28.00;;
14474;SDS011;7323;50.848;4.334;2023-02-12T18:39:06;37.33;;;27.73;;